Latest Weather Observations for Wilcannia Airport

IDN60801

Issued at 6:35 pm EST Sunday 20 April 2014 (issued every 30 minutes, with the page automatically refreshed every 10 minutes)

About weather observations | Map of weather stations | Latest weather observations for NSW | Other Formats
Station Details ID: 046012 Name: WILCANNIA AERODROME AWS Lat: -31.52 Lon: 143.38 Height: 94.3 m
Data from the previous 72 hours. | See also: Recent months for locations in New South Wales
Date/Time
EST
Temp
°C
App
Temp
°C
Dew
Point
Rel
Hum
%
Delta-T
°C
Wind Press
QNH
hPa
Press
MSL
hPa
Rain
since 9 am
mm
Dir
 
Spd
km/h
Gust
km/h
Spd
kts
Gust
kts
20/06:30pm 17.2 14.0 7.0 51 5.1 E 13 15 7 8 1017.6 - 0.0
20/06:00pm 19.4 17.0 6.8 44 6.4 ESE 9 9 5 5 1017.3 1017.0 0.0
20/05:30pm 21.9 19.7 6.2 36 8.0 SSE 7 11 4 6 1017.2 - 0.0
20/05:00pm 22.8 21.3 6.6 35 8.3 SE 4 9 2 5 1017.0 1016.7 0.0
20/04:30pm 23.2 21.0 6.0 33 8.8 WSW 7 11 4 6 1017.0 - 0.0
20/04:00pm 23.6 21.4 6.4 33 8.8 WSW 7 13 4 7 1017.1 1016.8 0.0
20/03:30pm 23.6 21.0 6.0 32 9.0 ESE 9 19 5 10 1017.2 - 0.0
20/03:00pm 23.0 19.4 5.0 31 9.0 SSW 13 17 7 9 1017.2 1016.9 0.0
20/02:30pm 23.6 20.5 5.5 31 9.2 SW 11 22 6 12 1017.3 - 0.0
20/02:00pm 23.0 20.2 5.0 31 9.0 S 9 13 5 7 1017.5 1017.2 0.0
20/01:30pm 22.5 19.7 5.0 32 8.7 SE 9 13 5 7 1017.8 - 0.0
20/01:00pm 22.3 19.8 4.8 32 8.7 S 7 15 4 8 1018.3 1018.1 0.0
20/12:30pm 22.0 19.5 4.6 32 8.6 W 7 17 4 9 1018.9 - 0.0
20/12:00pm 22.0 19.5 4.6 32 8.6 NE 7 13 4 7 1019.3 1019.1 0.0
20/11:30am 21.3 18.3 4.0 32 8.4 NW 9 15 5 8 1019.7 - 0.0
20/11:00am 20.8 17.8 4.0 33 8.1 NNW 9 15 5 8 1020.1 1019.9 0.0
20/10:30am 20.1 17.0 3.8 34 7.8 NNW 9 15 5 8 1020.4 - 0.0
20/10:00am 19.2 16.0 4.9 39 6.9 NE 11 17 6 9 1020.4 1020.2 0.0
20/09:30am 18.0 14.1 3.5 38 6.8 NE 13 19 7 10 1020.4 - 0.0
20/09:00am 17.1 13.8 4.8 44 5.9 NE 11 17 6 9 1020.4 1020.2 0.0
20/08:30am 15.4 12.6 5.0 50 4.9 NNE 9 13 5 7 1020.2 - 0.0
20/08:00am 12.4 10.5 6.5 67 2.8 NW 6 6 3 3 1020.0 1019.8 0.0
20/07:30am 8.9 6.8 6.0 82 1.3 NW 6 6 3 3 1019.6 - 0.0
20/07:00am 6.3 3.6 3.8 84 1.1 W 7 7 4 4 1019.5 1019.3 0.0
20/06:30am 7.2 3.9 4.7 84 1.1 W 11 13 6 7 1019.3 - 0.0
20/06:00am 7.1 4.1 4.2 82 1.3 WSW 9 9 5 5 1018.8 1018.6 0.0
20/05:30am 7.6 4.3 4.4 80 1.4 WSW 11 13 6 7 1018.6 - 0.0
20/05:00am 8.2 4.7 3.5 72 2.0 NNE 11 11 6 6 1018.1 1017.9 0.0
20/04:30am 8.6 5.2 4.0 73 2.0 NNE 11 13 6 7 1017.9 - 0.0
20/04:00am 8.3 4.9 3.8 73 1.9 NNE 11 13 6 7 1017.8 1017.5 0.0
20/03:30am 8.7 5.4 4.5 75 1.9 NE 11 13 6 7 1017.7 - 0.0
20/03:00am 7.0 3.9 3.4 78 1.5 NNE 9 9 5 5 1017.7 1017.4 0.0
20/02:30am 8.6 5.6 4.2 74 1.9 E 9 13 5 7 1017.9 - 0.0
20/02:00am 7.8 4.6 3.3 73 1.9 E 9 9 5 5 1018.0 1017.8 0.0
20/01:30am 9.0 5.9 3.8 70 2.3 E 9 11 5 6 1018.2 - 0.0
20/01:00am 9.5 6.0 3.7 67 2.5 E 11 11 6 6 1018.3 1018.1 0.0
20/12:30am 9.7 5.9 3.7 66 2.6 E 13 13 7 7 1018.4 - 0.0
20/12:00am 10.0 6.5 3.7 65 2.8 E 11 11 6 6 1018.5 1018.3 0.0
 
Date/Time
EST
Temp
°C
App
Temp
°C
Dew
Point
Rel
Hum
%
Delta-T
°C
Wind Press
QNH
hPa
Press
MSL
hPa
Rain
since 9 am
mm
Dir
 
Spd
km/h
Gust
km/h
Spd
kts
Gust
kts
19/11:30pm 10.3 6.9 3.8 64 2.9 ESE 11 13 6 7 1018.7 - 0.0
19/11:00pm 10.3 6.5 4.0 65 2.8 ESE 13 13 7 7 1019.1 1018.9 0.0
19/10:30pm 10.5 7.1 3.8 63 3.0 ESE 11 13 6 7 1019.2 - 0.0
19/10:00pm 11.0 7.2 4.0 62 3.1 ESE 13 13 7 7 1019.2 1019.0 0.0
19/09:30pm 11.4 7.9 3.7 59 3.4 SE 11 13 6 7 1019.3 - 0.0
19/09:00pm 11.5 8.1 4.0 60 3.4 SE 11 13 6 7 1019.3 1019.1 0.0
19/08:30pm 12.7 9.3 4.2 56 3.9 SSE 11 13 6 7 1019.1 - 0.0
19/08:00pm 12.3 8.9 4.0 57 3.7 S 11 13 6 7 1019.0 1018.8 0.0
19/07:30pm 13.6 10.2 4.2 53 4.3 S 11 13 6 7 1018.7 - 0.0
19/07:00pm 14.0 10.7 4.3 52 4.5 SSW 11 11 6 6 1018.4 1018.2 0.0
19/06:30pm 15.1 11.3 3.9 47 5.2 SSW 13 13 7 7 1018.3 - 0.0
19/06:00pm 17.1 13.6 3.4 40 6.3 SSW 11 13 6 7 1018.1 1017.9 0.0
19/05:30pm 19.2 14.8 2.6 33 7.7 SSW 15 19 8 10 1017.8 - 0.0
19/05:00pm 20.3 16.0 3.1 32 8.1 SSW 15 20 8 11 1017.8 1017.5 0.0
19/04:30pm 20.4 15.6 2.7 31 8.3 S 17 20 9 11 1017.8 - 0.0
19/04:00pm 20.9 16.6 3.2 31 8.4 SSW 15 22 8 12 1017.8 1017.5 0.0
19/03:30pm 20.9 15.9 3.6 32 8.3 SSW 19 26 10 14 1018.0 - 0.0
19/03:00pm 21.1 16.0 3.3 31 8.5 S 19 22 10 12 1018.2 1018.0 0.0
19/02:30pm 21.1 16.4 3.3 31 8.5 SSW 17 24 9 13 1018.3 - 0.0
19/02:00pm 20.7 17.7 3.9 33 8.1 SSW 9 17 5 9 1018.5 1018.3 0.0
19/01:30pm 20.5 16.1 2.8 31 8.3 SSE 15 24 8 13 1019.0 - 0.0
19/01:00pm 20.6 15.9 3.3 32 8.2 SSW 17 24 9 13 1019.5 1019.3 0.0
19/12:30pm 20.9 17.1 4.0 33 8.2 S 13 26 7 14 1020.0 - 0.0
19/12:00pm 20.1 15.9 3.8 34 7.8 SSW 15 24 8 13 1020.5 1020.3 0.0
19/11:30am 19.8 16.4 3.9 35 7.6 SSW 11 20 6 11 1020.9 - 0.0
19/11:00am 18.8 15.8 4.2 38 7.0 SSE 9 15 5 8 1021.2 1021.0 0.0
19/10:30am 18.6 16.0 6.1 44 6.2 ESE 9 15 5 8 1021.3 - 0.0
19/10:00am 17.5 15.0 6.4 48 5.5 SSE 9 15 5 8 1021.6 1021.4 0.0
19/09:30am 16.7 13.6 7.1 53 4.8 SSE 13 17 7 9 1021.7 - 0.0
19/09:00am 14.8 11.2 6.9 59 3.9 S 15 19 8 10 1021.5 1021.3 0.0
19/08:30am 14.3 10.9 7.8 65 3.2 S 15 19 8 10 1021.4 - 0.0
19/08:00am 11.9 9.4 8.2 78 1.8 SSW 11 13 6 7 1021.2 1021.0 0.0
19/07:30am 9.7 7.5 7.8 88 0.9 SSW 9 11 5 6 1021.0 - 0.0
19/07:00am 8.5 5.3 6.8 89 0.8 SSW 13 15 7 8 1020.6 1020.4 0.0
19/06:30am 9.0 5.8 7.0 87 0.9 SW 13 15 7 8 1020.5 - 0.0
19/06:00am 9.4 6.7 7.2 86 1.0 SW 11 13 6 7 1020.3 1020.1 0.0
19/05:30am 9.9 6.9 7.8 87 1.0 WSW 13 13 7 7 1020.0 - 0.0
19/05:00am 10.0 7.8 7.8 86 1.1 WSW 9 11 5 6 1019.9 1019.7 0.0
19/04:30am 11.0 8.6 8.6 85 1.2 SW 11 11 6 6 1019.7 - 0.0
19/04:00am 11.2 8.5 8.8 85 1.2 SW 13 15 7 8 1019.6 1019.4 0.0
19/03:30am 11.3 9.0 8.9 85 1.2 SW 11 13 6 7 1019.5 - 0.0
19/03:00am 12.1 9.9 9.5 84 1.3 WSW 11 13 6 7 1019.5 1019.3 0.0
19/02:30am 13.1 10.6 9.7 80 1.7 SSW 13 17 7 9 1019.5 - 0.0
19/02:00am 13.9 11.5 10.1 78 2.0 SSW 13 17 7 9 1019.7 1019.5 0.0
19/01:30am 14.1 11.5 10.7 80 1.8 SSW 15 17 8 9 1019.8 - 0.0
19/01:00am 13.5 11.3 10.7 83 1.5 SSW 13 13 7 7 1019.8 1019.6 0.0
19/12:30am 13.7 11.5 10.7 82 1.6 SSW 13 15 7 8 1019.8 - 0.0
19/12:00am 14.3 12.1 10.9 80 1.8 SW 13 15 7 8 1019.7 1019.5 0.0
 
Date/Time
EST
Temp
°C
App
Temp
°C
Dew
Point
Rel
Hum
%
Delta-T
°C
Wind Press
QNH
hPa
Press
MSL
hPa
Rain
since 9 am
mm
Dir
 
Spd
km/h
Gust
km/h
Spd
kts
Gust
kts
18/11:30pm 15.0 13.2 10.8 76 2.2 WSW 11 13 6 7 1019.6 - 0.0
18/11:00pm 15.9 13.5 11.3 74 2.5 SW 15 17 8 9 1019.6 1019.4 0.0
18/10:30pm 15.1 13.1 10.3 73 2.5 SW 11 13 6 7 1019.6 - 0.0
18/10:00pm 15.4 13.4 10.2 71 2.7 SW 11 13 6 7 1019.5 1019.3 0.0
18/09:30pm 15.8 13.4 10.1 69 3.0 SW 13 15 7 8 1019.3 - 0.0
18/09:00pm 16.0 13.9 9.9 67 3.2 SW 11 13 6 7 1019.1 1018.9 0.0
18/08:30pm 16.7 14.6 9.9 64 3.6 SW 11 13 6 7 1018.9 - 0.0
18/08:00pm 17.8 15.4 10.2 61 4.0 SW 13 15 7 8 1018.8 1018.6 0.0
18/07:30pm 18.6 16.2 10.2 58 4.5 SW 13 15 7 8 1018.5 - 0.0
18/07:00pm 19.5 17.1 10.2 55 5.0 SW 13 15 7 8 1018.3 1018.1 0.0
18/06:30pm 20.5 17.6 9.7 50 5.8 SW 15 19 8 10 1017.8 - 0.0
18/06:00pm 21.9 18.3 8.4 42 7.1 WSW 17 22 9 12 1017.5 1017.2 0.0
18/05:30pm 23.3 18.9 7.4 36 8.3 SW 20 32 11 17 1017.4 - 0.0
18/05:00pm 24.4 20.2 9.6 39 8.1 SW 22 33 12 18 1017.1 1016.8 0.0
18/04:30pm 25.1 19.7 8.1 34 9.1 WSW 26 39 14 21 1016.8 - 0.0
18/04:00pm 25.8 21.2 8.3 33 9.4 SW 22 33 12 18 1016.6 1016.3 0.0
18/03:30pm 26.0 19.6 8.5 33 9.5 SW 32 41 17 22 1016.5 - 0.0
18/03:00pm 25.4 20.2 8.8 35 9.0 SW 26 37 14 20 1016.4 1016.1 0.0
18/02:30pm 27.2 22.6 9.5 33 9.8 WSW 24 37 13 20 1016.4 - 0.0
18/02:00pm 27.3 22.6 9.2 32 10.0 W 24 37 13 20 1016.5 1016.2 0.0
18/01:30pm 27.0 22.0 8.0 30 10.3 W 24 33 13 18 1016.8 - 0.0
18/01:00pm 26.6 21.5 7.6 30 10.2 W 24 32 13 17 1017.3 1017.0 0.0
18/12:30pm 26.2 21.0 7.3 30 10.0 W 24 33 13 18 1018.0 - 0.0
18/12:00pm 26.3 20.9 7.8 31 9.9 WSW 26 33 14 18 1018.6 1018.4 0.0
18/11:30am 26.4 21.7 7.9 31 9.9 W 22 35 12 19 1018.8 - 0.0
18/11:00am 25.5 21.7 7.6 32 9.5 WNW 17 24 9 13 1019.0 1018.8 0.0
18/10:30am 24.4 20.3 8.0 35 8.7 WNW 19 26 10 14 1019.4 - 0.0
18/10:00am 24.1 20.0 7.7 35 8.7 WNW 19 26 10 14 1019.6 1019.4 0.0
18/09:30am 22.9 20.1 8.6 40 7.6 NW 13 17 7 9 1019.8 - 0.0
18/09:00am 21.6 18.8 8.5 43 6.9 NW 13 15 7 8 1019.9 1019.7 0.0
18/08:30am 19.8 17.6 9.4 51 5.5 NW 11 15 6 8 1019.9 - 0.0
18/08:00am 16.9 15.4 10.7 67 3.3 WNW 9 11 5 6 1019.7 1019.5 0.0
18/07:30am 13.8 11.7 9.6 76 2.2 NW 11 13 6 7 1019.6 - 0.0
18/07:00am 11.7 8.9 8.4 80 1.6 NW 13 13 7 7 1019.4 1019.2 0.0
18/06:30am 11.6 8.8 8.5 81 1.5 WNW 13 15 7 8 1019.3 - 0.0
18/06:00am 11.7 9.3 8.6 81 1.5 WNW 11 13 6 7 1019.2 1019.0 0.0
18/05:30am 11.7 8.9 8.4 80 1.6 WNW 13 13 7 7 1019.2 - 0.0
18/05:00am 11.9 9.1 8.6 80 1.6 WNW 13 15 7 8 1019.1 1018.9 0.0
18/04:30am 11.8 9.0 8.6 81 1.6 WNW 13 13 7 7 1019.0 - 0.0
18/04:00am 11.3 8.7 7.6 78 1.8 WNW 11 11 6 6 1018.8 1018.6 0.0
18/03:30am 12.1 9.6 8.2 77 1.9 WNW 11 13 6 7 1018.9 - 0.0
18/03:00am 12.4 9.9 8.1 75 2.1 WNW 11 13 6 7 1019.1 1018.9 0.0
18/02:30am 12.7 9.7 7.8 72 2.4 WNW 13 13 7 7 1019.1 - 0.0
18/02:00am 12.9 10.7 7.8 71 2.5 W 9 11 5 6 1019.3 1019.1 0.0
18/01:30am 13.5 11.4 8.1 70 2.7 W 9 11 5 6 1019.5 - 0.0
18/01:00am 13.3 11.6 8.4 72 2.4 W 7 9 4 5 1019.6 1019.4 0.0
18/12:30am 13.4 11.9 8.3 71 2.6 SSW 6 7 3 4 1019.8 - 0.0
18/12:00am 12.8 10.2 7.7 71 2.5 S 11 11 6 6 1020.0 1019.8 0.0
 
Date/Time
EST
Temp
°C
App
Temp
°C
Dew
Point
Rel
Hum
%
Delta-T
°C
Wind Press
QNH
hPa
Press
MSL
hPa
Rain
since 9 am
mm
Dir
 
Spd
km/h
Gust
km/h
Spd
kts
Gust
kts
17/11:30pm 13.1 11.0 8.2 72 2.4 SSE 9 11 5 6 1020.2 - 0.0
17/11:00pm 12.8 10.6 7.9 72 2.4 S 9 13 5 7 1020.5 1020.3 0.0
17/10:30pm 13.8 11.6 7.8 67 3.0 SW 9 9 5 5 1020.7 - 0.0
17/10:00pm 15.3 13.3 8.8 65 3.3 WSW 9 9 5 5 1020.7 1020.5 0.0
17/09:30pm 15.2 13.1 8.4 64 3.4 SW 9 11 5 6 1020.6 - 0.0
17/09:00pm 15.9 13.8 8.2 60 3.9 SSW 9 11 5 6 1020.5 1020.3 0.0
17/08:30pm 16.4 13.9 8.1 58 4.2 WSW 11 13 6 7 1020.2 - 0.0
17/08:00pm 16.9 14.7 7.8 55 4.6 WSW 9 11 5 6 1020.0 1019.8 0.0
17/07:30pm 17.6 15.3 7.6 52 5.1 SW 9 11 5 6 1019.7 - 0.0
17/07:00pm 17.8 16.0 7.0 49 5.4 SSW 6 7 3 4 1019.5 1019.3 0.0

Other Formats:

Comma delimited format used in spreadsheet applications
http://www.bom.gov.au/fwo/IDN60801/IDN60801.95695.axf

JavaScript Object Notation format (JSON) in row-major order
http://www.bom.gov.au/fwo/IDN60801/IDN60801.95695.json